sensor_id;sensor_type;location;lat;lon;timestamp;temperature;humidity
65568;DHT22;52211;50.154;8.682;2023-10-13T00:00:43;19.40;71.50
65568;DHT22;52211;50.154;8.682;2023-10-13T00:03:12;19.40;71.50
65568;DHT22;52211;50.154;8.682;2023-10-13T00:05:42;19.40;71.60
65568;DHT22;52211;50.154;8.682;2023-10-13T00:08:11;19.40;71.60
65568;DHT22;52211;50.154;8.682;2023-10-13T00:10:41;19.30;71.50
65568;DHT22;52211;50.154;8.682;2023-10-13T00:13:08;19.30;71.50
65568;DHT22;52211;50.154;8.682;2023-10-13T00:15:43;19.30;71.60
65568;DHT22;52211;50.154;8.682;2023-10-13T00:18:31;19.30;71.90
65568;DHT22;52211;50.154;8.682;2023-10-13T00:21:02;19.30;71.60
65568;DHT22;52211;50.154;8.682;2023-10-13T00:23:40;19.30;71.70
65568;DHT22;52211;50.154;8.682;2023-10-13T00:26:21;19.30;71.70
65568;DHT22;52211;50.154;8.682;2023-10-13T00:29:00;19.30;71.70
65568;DHT22;52211;50.154;8.682;2023-10-13T00:31:44;19.30;71.80
65568;DHT22;52211;50.154;8.682;2023-10-13T00:34:14;19.30;71.80
65568;DHT22;52211;50.154;8.682;2023-10-13T00:36:46;19.30;71.70
65568;DHT22;52211;50.154;8.682;2023-10-13T00:39:15;19.30;71.80
65568;DHT22;52211;50.154;8.682;2023-10-13T00:41:43;19.20;71.70
65568;DHT22;52211;50.154;8.682;2023-10-13T00:44:23;19.20;71.70
65568;DHT22;52211;50.154;8.682;2023-10-13T00:47:05;19.20;71.70
65568;DHT22;52211;50.154;8.682;2023-10-13T00:49:45;19.20;71.70
65568;DHT22;52211;50.154;8.682;2023-10-13T00:52:16;19.20;71.80
65568;DHT22;52211;50.154;8.682;2023-10-13T00:54:45;19.20;71.80
65568;DHT22;52211;50.154;8.682;2023-10-13T00:57:14;19.20;71.90
65568;DHT22;52211;50.154;8.682;2023-10-13T00:59:58;19.20;71.90
65568;DHT22;52211;50.154;8.682;2023-10-13T01:02:41;19.20;71.90
65568;DHT22;52211;50.154;8.682;2023-10-13T01:05:08;19.20;71.90
65568;DHT22;52211;50.154;8.682;2023-10-13T01:07:47;19.20;71.90
65568;DHT22;52211;50.154;8.682;2023-10-13T01:10:22;19.20;71.90
65568;DHT22;52211;50.154;8.682;2023-10-13T01:12:55;19.20;71.90
65568;DHT22;52211;50.154;8.682;2023-10-13T01:15:21;19.20;71.90
65568;DHT22;52211;50.154;8.682;2023-10-13T01:17:49;19.10;71.90
65568;DHT22;52211;50.154;8.682;2023-10-13T01:20:16;19.10;71.90
65568;DHT22;52211;50.154;8.682;2023-10-13T01:22:53;19.20;71.90
65568;DHT22;52211;50.154;8.682;2023-10-13T01:25:28;19.10;71.90
65568;DHT22;52211;50.154;8.682;2023-10-13T01:27:57;19.10;72.00
65568;DHT22;52211;50.154;8.682;2023-10-13T01:30:24;19.20;71.90
65568;DHT22;52211;50.154;8.682;2023-10-13T01:32:55;19.20;71.90
65568;DHT22;52211;50.154;8.682;2023-10-13T01:35:27;19.20;72.00
65568;DHT22;52211;50.154;8.682;2023-10-13T01:38:05;19.10;71.90
65568;DHT22;52211;50.154;8.682;2023-10-13T01:40:35;19.20;72.00
65568;DHT22;52211;50.154;8.682;2023-10-13T01:43:02;19.20;72.00
65568;DHT22;52211;50.154;8.682;2023-10-13T01:45:33;19.20;72.10
65568;DHT22;52211;50.154;8.682;2023-10-13T01:48:18;19.20;72.10
65568;DHT22;52211;50.154;8.682;2023-10-13T01:50:56;19.20;72.20
65568;DHT22;52211;50.154;8.682;2023-10-13T01:53:27;19.20;72.20
65568;DHT22;52211;50.154;8.682;2023-10-13T01:55:57;19.20;72.20
65568;DHT22;52211;50.154;8.682;2023-10-13T01:58:25;19.10;72.20
65568;DHT22;52211;50.154;8.682;2023-10-13T02:00:56;19.20;72.20
65568;DHT22;52211;50.154;8.682;2023-10-13T02:03:26;19.20;72.30
65568;DHT22;52211;50.154;8.682;2023-10-13T02:05:56;19.20;72.20
65568;DHT22;52211;50.154;8.682;2023-10-13T02:08:32;19.20;72.30
65568;DHT22;52211;50.154;8.682;2023-10-13T02:11:01;19.20;72.30
65568;DHT22;52211;50.154;8.682;2023-10-13T02:13:36;19.20;72.20
65568;DHT22;52211;50.154;8.682;2023-10-13T02:16:17;19.20;72.20
65568;DHT22;52211;50.154;8.682;2023-10-13T02:18:49;19.20;72.20
65568;DHT22;52211;50.154;8.682;2023-10-13T02:21:20;19.10;72.20
65568;DHT22;52211;50.154;8.682;2023-10-13T02:23:50;19.10;72.20
65568;DHT22;52211;50.154;8.682;2023-10-13T02:26:30;19.10;72.30
65568;DHT22;52211;50.154;8.682;2023-10-13T02:29:01;19.10;72.30
65568;DHT22;52211;50.154;8.682;2023-10-13T02:31:39;19.10;72.20
65568;DHT22;52211;50.154;8.682;2023-10-13T02:34:07;19.10;72.30
65568;DHT22;52211;50.154;8.682;2023-10-13T02:36:35;19.10;72.20
65568;DHT22;52211;50.154;8.682;2023-10-13T02:39:14;19.20;72.30
65568;DHT22;52211;50.154;8.682;2023-10-13T02:41:56;19.10;72.90
65568;DHT22;52211;50.154;8.682;2023-10-13T02:44:28;19.10;72.30
65568;DHT22;52211;50.154;8.682;2023-10-13T02:46:58;19.20;72.40
65568;DHT22;52211;50.154;8.682;2023-10-13T02:49:29;19.20;72.30
65568;DHT22;52211;50.154;8.682;2023-10-13T02:52:03;19.10;72.30
65568;DHT22;52211;50.154;8.682;2023-10-13T02:54:38;19.10;72.30
65568;DHT22;52211;50.154;8.682;2023-10-13T02:57:17;19.10;72.30
65568;DHT22;52211;50.154;8.682;2023-10-13T02:59:45;19.10;72.90
65568;DHT22;52211;50.154;8.682;2023-10-13T03:02:24;19.10;72.30
65568;DHT22;52211;50.154;8.682;2023-10-13T03:04:57;19.00;72.30
65568;DHT22;52211;50.154;8.682;2023-10-13T03:07:36;19.00;72.40
65568;DHT22;52211;50.154;8.682;2023-10-13T03:10:06;19.10;72.50
65568;DHT22;52211;50.154;8.682;2023-10-13T03:12:40;19.00;72.50
65568;DHT22;52211;50.154;8.682;2023-10-13T03:15:10;19.00;72.60
65568;DHT22;52211;50.154;8.682;2023-10-13T03:17:50;19.00;72.50
65568;DHT22;52211;50.154;8.682;2023-10-13T03:20:21;19.00;72.40
65568;DHT22;52211;50.154;8.682;2023-10-13T03:22:59;19.00;72.40
65568;DHT22;52211;50.154;8.682;2023-10-13T03:25:38;19.10;72.50
65568;DHT22;52211;50.154;8.682;2023-10-13T03:28:19;19.00;72.50
65568;DHT22;52211;50.154;8.682;2023-10-13T03:30:57;19.00;72.50
65568;DHT22;52211;50.154;8.682;2023-10-13T03:33:28;19.00;72.60
65568;DHT22;52211;50.154;8.682;2023-10-13T03:36:00;19.00;72.70
65568;DHT22;52211;50.154;8.682;2023-10-13T03:38:32;19.00;72.70
65568;DHT22;52211;50.154;8.682;2023-10-13T03:41:03;19.00;72.60
65568;DHT22;52211;50.154;8.682;2023-10-13T03:43:49;19.00;72.60
65568;DHT22;52211;50.154;8.682;2023-10-13T03:46:34;19.00;72.60
65568;DHT22;52211;50.154;8.682;2023-10-13T03:49:03;19.00;72.60
65568;DHT22;52211;50.154;8.682;2023-10-13T03:51:33;19.00;72.60
65568;DHT22;52211;50.154;8.682;2023-10-13T03:54:04;19.00;72.60
65568;DHT22;52211;50.154;8.682;2023-10-13T03:56:35;18.90;72.60
65568;DHT22;52211;50.154;8.682;2023-10-13T03:59:09;19.00;72.60
65568;DHT22;52211;50.154;8.682;2023-10-13T04:01:47;18.90;72.50
65568;DHT22;52211;50.154;8.682;2023-10-13T04:04:18;18.90;72.60
65568;DHT22;52211;50.154;8.682;2023-10-13T04:07:02;18.90;72.60
65568;DHT22;52211;50.154;8.682;2023-10-13T04:09:37;18.90;72.60
65568;DHT22;52211;50.154;8.682;2023-10-13T04:12:15;18.90;72.60
65568;DHT22;52211;50.154;8.682;2023-10-13T04:14:45;18.90;72.60
65568;DHT22;52211;50.154;8.682;2023-10-13T04:17:33;18.90;72.60
65568;DHT22;52211;50.154;8.682;2023-10-13T04:20:15;18.90;72.50
65568;DHT22;52211;50.154;8.682;2023-10-13T04:22:54;18.90;72.60
65568;DHT22;52211;50.154;8.682;2023-10-13T04:25:22;18.90;72.60
65568;DHT22;52211;50.154;8.682;2023-10-13T04:28:10;18.90;72.60
65568;DHT22;52211;50.154;8.682;2023-10-13T04:30:45;18.90;72.60
65568;DHT22;52211;50.154;8.682;2023-10-13T04:33:15;18.90;72.70
65568;DHT22;52211;50.154;8.682;2023-10-13T04:36:03;19.00;72.60
65568;DHT22;52211;50.154;8.682;2023-10-13T04:38:47;18.90;72.60
65568;DHT22;52211;50.154;8.682;2023-10-13T04:41:29;19.00;72.80
65568;DHT22;52211;50.154;8.682;2023-10-13T04:44:15;19.00;72.70
65568;DHT22;52211;50.154;8.682;2023-10-13T04:47:04;19.00;72.70
65568;DHT22;52211;50.154;8.682;2023-10-13T04:49:41;19.00;72.60
65568;DHT22;52211;50.154;8.682;2023-10-13T04:52:16;19.00;72.80
65568;DHT22;52211;50.154;8.682;2023-10-13T04:55:05;19.00;72.60
65568;DHT22;52211;50.154;8.682;2023-10-13T04:57:47;19.00;72.60
65568;DHT22;52211;50.154;8.682;2023-10-13T05:00:22;19.00;72.60
65568;DHT22;52211;50.154;8.682;2023-10-13T05:02:51;19.00;72.60
65568;DHT22;52211;50.154;8.682;2023-10-13T05:05:29;19.00;72.60
65568;DHT22;52211;50.154;8.682;2023-10-13T05:08:22;19.00;72.60
65568;DHT22;52211;50.154;8.682;2023-10-13T05:11:12;19.00;72.60
65568;DHT22;52211;50.154;8.682;2023-10-13T05:14:00;19.10;72.60
65568;DHT22;52211;50.154;8.682;2023-10-13T05:16:50;19.10;72.60
65568;DHT22;52211;50.154;8.682;2023-10-13T05:19:38;19.10;72.70
65568;DHT22;52211;50.154;8.682;2023-10-13T05:22:24;19.10;72.60
65568;DHT22;52211;50.154;8.682;2023-10-13T05:25:09;19.10;72.60
65568;DHT22;52211;50.154;8.682;2023-10-13T05:27:57;19.10;72.60
65568;DHT22;52211;50.154;8.682;2023-10-13T05:31:00;19.10;72.70
65568;DHT22;52211;50.154;8.682;2023-10-13T05:33:51;19.00;72.60
65568;DHT22;52211;50.154;8.682;2023-10-13T05:36:39;19.00;72.70
65568;DHT22;52211;50.154;8.682;2023-10-13T05:39:24;19.00;72.70
65568;DHT22;52211;50.154;8.682;2023-10-13T05:42:14;19.00;72.80
